sensor_id;sensor_type;location;lat;lon;timestamp;temperature;humidity
9816;DHT22;4947;44.526;11.360;2022-08-18T00:02:11;22.70;99.90
9816;DHT22;4947;44.526;11.360;2022-08-18T00:04:40;22.60;99.90
9816;DHT22;4947;44.526;11.360;2022-08-18T00:07:11;22.60;99.90
9816;DHT22;4947;44.526;11.360;2022-08-18T00:09:40;22.60;99.90
9816;DHT22;4947;44.526;11.360;2022-08-18T00:12:15;22.60;99.90
9816;DHT22;4947;44.526;11.360;2022-08-18T00:14:44;22.60;99.90
9816;DHT22;4947;44.526;11.360;2022-08-18T00:17:12;22.70;99.90
9816;DHT22;4947;44.526;11.360;2022-08-18T00:19:40;22.60;99.90
9816;DHT22;4947;44.526;11.360;2022-08-18T00:22:08;22.70;99.90
9816;DHT22;4947;44.526;11.360;2022-08-18T00:24:35;22.60;99.90
9816;DHT22;4947;44.526;11.360;2022-08-18T00:27:04;22.60;99.90
9816;DHT22;4947;44.526;11.360;2022-08-18T00:29:33;22.50;99.90
9816;DHT22;4947;44.526;11.360;2022-08-18T00:32:10;22.50;99.90
9816;DHT22;4947;44.526;11.360;2022-08-18T00:34:38;22.50;99.90
9816;DHT22;4947;44.526;11.360;2022-08-18T00:37:06;22.50;99.90
9816;DHT22;4947;44.526;11.360;2022-08-18T00:39:33;22.40;99.90
9816;DHT22;4947;44.526;11.360;2022-08-18T00:42:12;22.40;99.90
9816;DHT22;4947;44.526;11.360;2022-08-18T00:44:41;22.40;99.90
9816;DHT22;4947;44.526;11.360;2022-08-18T00:47:09;22.30;99.90
9816;DHT22;4947;44.526;11.360;2022-08-18T00:49:40;22.30;99.90
9816;DHT22;4947;44.526;11.360;2022-08-18T00:52:11;22.30;99.90
9816;DHT22;4947;44.526;11.360;2022-08-18T00:54:40;22.30;99.90
9816;DHT22;4947;44.526;11.360;2022-08-18T00:57:10;22.30;99.90
9816;DHT22;4947;44.526;11.360;2022-08-18T00:59:43;22.20;99.90
9816;DHT22;4947;44.526;11.360;2022-08-18T01:02:19;22.20;99.90
9816;DHT22;4947;44.526;11.360;2022-08-18T01:04:51;22.20;99.90
9816;DHT22;4947;44.526;11.360;2022-08-18T01:07:23;22.30;99.90
9816;DHT22;4947;44.526;11.360;2022-08-18T01:09:55;22.20;99.90
9816;DHT22;4947;44.526;11.360;2022-08-18T01:12:24;22.30;99.90
9816;DHT22;4947;44.526;11.360;2022-08-18T01:14:55;22.20;99.90
9816;DHT22;4947;44.526;11.360;2022-08-18T01:17:23;22.20;99.90
9816;DHT22;4947;44.526;11.360;2022-08-18T01:20:10;22.20;99.90
9816;DHT22;4947;44.526;11.360;2022-08-18T01:23:00;22.10;99.90
9816;DHT22;4947;44.526;11.360;2022-08-18T01:25:30;22.10;99.90
9816;DHT22;4947;44.526;11.360;2022-08-18T01:28:16;22.10;99.90
9816;DHT22;4947;44.526;11.360;2022-08-18T01:30:50;22.10;99.90
9816;DHT22;4947;44.526;11.360;2022-08-18T01:33:18;22.10;99.90
9816;DHT22;4947;44.526;11.360;2022-08-18T01:35:47;22.10;99.90
9816;DHT22;4947;44.526;11.360;2022-08-18T01:38:18;22.10;99.90
9816;DHT22;4947;44.526;11.360;2022-08-18T01:40:47;22.10;99.90
9816;DHT22;4947;44.526;11.360;2022-08-18T01:43:15;22.10;99.90
9816;DHT22;4947;44.526;11.360;2022-08-18T01:45:43;22.10;99.90
9816;DHT22;4947;44.526;11.360;2022-08-18T01:48:11;22.10;99.90
9816;DHT22;4947;44.526;11.360;2022-08-18T01:50:39;22.10;99.90
9816;DHT22;4947;44.526;11.360;2022-08-18T01:53:08;22.20;99.90
9816;DHT22;4947;44.526;11.360;2022-08-18T01:55:39;22.30;99.90
9816;DHT22;4947;44.526;11.360;2022-08-18T01:58:09;22.30;99.90
9816;DHT22;4947;44.526;11.360;2022-08-18T02:00:36;22.40;99.90
9816;DHT22;4947;44.526;11.360;2022-08-18T02:03:06;22.40;99.90
9816;DHT22;4947;44.526;11.360;2022-08-18T02:05:38;22.30;99.90
9816;DHT22;4947;44.526;11.360;2022-08-18T02:08:07;22.30;99.90
9816;DHT22;4947;44.526;11.360;2022-08-18T02:10:38;22.30;99.90
9816;DHT22;4947;44.526;11.360;2022-08-18T02:13:06;22.30;99.90
9816;DHT22;4947;44.526;11.360;2022-08-18T02:15:34;22.40;99.90
9816;DHT22;4947;44.526;11.360;2022-08-18T02:18:01;22.40;99.90
9816;DHT22;4947;44.526;11.360;2022-08-18T02:20:29;22.40;99.90
9816;DHT22;4947;44.526;11.360;2022-08-18T02:22:57;22.40;99.90
9816;DHT22;4947;44.526;11.360;2022-08-18T02:25:29;22.40;99.90
9816;DHT22;4947;44.526;11.360;2022-08-18T02:27:58;22.50;99.90
9816;DHT22;4947;44.526;11.360;2022-08-18T02:30:26;22.50;99.90
9816;DHT22;4947;44.526;11.360;2022-08-18T02:32:53;22.60;99.90
9816;DHT22;4947;44.526;11.360;2022-08-18T02:35:21;22.60;99.90
9816;DHT22;4947;44.526;11.360;2022-08-18T02:37:48;22.60;99.90
9816;DHT22;4947;44.526;11.360;2022-08-18T02:40:17;22.60;99.90
9816;DHT22;4947;44.526;11.360;2022-08-18T02:42:46;22.70;99.90
9816;DHT22;4947;44.526;11.360;2022-08-18T02:45:15;22.70;99.90
9816;DHT22;4947;44.526;11.360;2022-08-18T02:47:43;22.70;99.90
9816;DHT22;4947;44.526;11.360;2022-08-18T02:50:12;22.70;99.90
9816;DHT22;4947;44.526;11.360;2022-08-18T02:52:40;22.70;99.90
9816;DHT22;4947;44.526;11.360;2022-08-18T02:55:08;22.70;99.90
9816;DHT22;4947;44.526;11.360;2022-08-18T02:57:40;22.60;99.90
9816;DHT22;4947;44.526;11.360;2022-08-18T03:00:10;22.60;99.90
9816;DHT22;4947;44.526;11.360;2022-08-18T03:02:39;22.60;99.90
9816;DHT22;4947;44.526;11.360;2022-08-18T03:05:07;22.60;99.90
9816;DHT22;4947;44.526;11.360;2022-08-18T03:07:35;22.60;99.90
9816;DHT22;4947;44.526;11.360;2022-08-18T03:10:03;22.60;99.90
9816;DHT22;4947;44.526;11.360;2022-08-18T03:12:31;22.60;99.90
9816;DHT22;4947;44.526;11.360;2022-08-18T03:14:58;22.50;99.90
9816;DHT22;4947;44.526;11.360;2022-08-18T03:17:27;22.60;99.90
9816;DHT22;4947;44.526;11.360;2022-08-18T03:19:56;22.60;99.90
9816;DHT22;4947;44.526;11.360;2022-08-18T03:22:23;22.60;99.90
9816;DHT22;4947;44.526;11.360;2022-08-18T03:24:51;22.70;99.90
9816;DHT22;4947;44.526;11.360;2022-08-18T03:27:18;22.60;99.90
9816;DHT22;4947;44.526;11.360;2022-08-18T03:29:46;22.70;99.90
9816;DHT22;4947;44.526;11.360;2022-08-18T03:32:14;22.60;99.90
9816;DHT22;4947;44.526;11.360;2022-08-18T03:34:42;22.70;99.90
9816;DHT22;4947;44.526;11.360;2022-08-18T03:37:12;22.60;99.90
9816;DHT22;4947;44.526;11.360;2022-08-18T03:39:41;22.70;99.90
9816;DHT22;4947;44.526;11.360;2022-08-18T03:42:08;22.70;99.90
9816;DHT22;4947;44.526;11.360;2022-08-18T03:44:36;22.70;99.90
9816;DHT22;4947;44.526;11.360;2022-08-18T03:47:07;22.70;99.90
9816;DHT22;4947;44.526;11.360;2022-08-18T03:49:36;22.60;99.90
9816;DHT22;4947;44.526;11.360;2022-08-18T03:52:07;22.50;99.90
9816;DHT22;4947;44.526;11.360;2022-08-18T03:54:36;22.60;99.90
9816;DHT22;4947;44.526;11.360;2022-08-18T03:57:03;22.60;99.90
9816;DHT22;4947;44.526;11.360;2022-08-18T03:59:31;22.50;99.90
9816;DHT22;4947;44.526;11.360;2022-08-18T04:02:02;22.60;99.90
9816;DHT22;4947;44.526;11.360;2022-08-18T04:04:30;22.50;99.90
9816;DHT22;4947;44.526;11.360;2022-08-18T04:07:05;22.60;99.90
9816;DHT22;4947;44.526;11.360;2022-08-18T04:09:36;22.60;99.90
9816;DHT22;4947;44.526;11.360;2022-08-18T04:12:06;22.50;99.90
9816;DHT22;4947;44.526;11.360;2022-08-18T04:14:37;22.50;99.90
9816;DHT22;4947;44.526;11.360;2022-08-18T04:17:05;22.60;99.90
9816;DHT22;4947;44.526;11.360;2022-08-18T04:19:33;22.60;99.90
9816;DHT22;4947;44.526;11.360;2022-08-18T04:22:01;22.50;99.90
9816;DHT22;4947;44.526;11.360;2022-08-18T04:24:30;22.40;99.90
9816;DHT22;4947;44.526;11.360;2022-08-18T04:27:01;22.40;99.90
9816;DHT22;4947;44.526;11.360;2022-08-18T04:29:29;22.40;99.90
9816;DHT22;4947;44.526;11.360;2022-08-18T04:32:00;22.30;99.90
9816;DHT22;4947;44.526;11.360;2022-08-18T04:34:29;22.40;99.90
9816;DHT22;4947;44.526;11.360;2022-08-18T04:36:57;22.30;99.90
9816;DHT22;4947;44.526;11.360;2022-08-18T04:39:25;22.40;99.90
9816;DHT22;4947;44.526;11.360;2022-08-18T04:41:53;22.40;99.90
9816;DHT22;4947;44.526;11.360;2022-08-18T04:44:22;22.40;99.90
9816;DHT22;4947;44.526;11.360;2022-08-18T04:46:51;22.40;99.90
9816;DHT22;4947;44.526;11.360;2022-08-18T04:49:22;22.30;99.90
9816;DHT22;4947;44.526;11.360;2022-08-18T04:51:51;22.30;99.90
9816;DHT22;4947;44.526;11.360;2022-08-18T04:54:38;22.40;99.90
9816;DHT22;4947;44.526;11.360;2022-08-18T04:57:07;22.30;99.90
9816;DHT22;4947;44.526;11.360;2022-08-18T04:59:38;22.40;99.90
9816;DHT22;4947;44.526;11.360;2022-08-18T05:02:06;22.30;99.90
9816;DHT22;4947;44.526;11.360;2022-08-18T05:04:35;22.30;99.90
9816;DHT22;4947;44.526;11.360;2022-08-18T05:07:04;22.40;99.90
9816;DHT22;4947;44.526;11.360;2022-08-18T05:09:32;22.40;99.90
9816;DHT22;4947;44.526;11.360;2022-08-18T05:12:00;22.40;99.90
9816;DHT22;4947;44.526;11.360;2022-08-18T05:14:28;22.40;99.90
9816;DHT22;4947;44.526;11.360;2022-08-18T05:16:59;22.40;99.90
9816;DHT22;4947;44.526;11.360;2022-08-18T05:19:27;22.40;99.90
9816;DHT22;4947;44.526;11.360;2022-08-18T05:21:56;22.40;99.90
9816;DHT22;4947;44.526;11.360;2022-08-18T05:24:26;22.40;99.90
9816;DHT22;4947;44.526;11.360;2022-08-18T05:26:54;22.50;99.90
9816;DHT22;4947;44.526;11.360;2022-08-18T05:29:22;22.60;99.90
9816;DHT22;4947;44.526;11.360;2022-08-18T05:31:51;22.60;99.90
9816;DHT22;4947;44.526;11.360;2022-08-18T05:34:21;22.60;99.90
9816;DHT22;4947;44.526;11.360;2022-08-18T05:37:00;22.70;99.90
9816;DHT22;4947;44.526;11.360;2022-08-18T05:39:34;22.80;99.90
9816;DHT22;4947;44.526;11.360;2022-08-18T05:42:07;22.70;99.90
9816;DHT22;4947;44.526;11.360;2022-08-18T05:44:40;22.60;99.90
9816;DHT22;4947;44.526;11.360;2022-08-18T05:47:11;22.50;99.90
9816;DHT22;4947;44.526;11.360;2022-08-18T05:49:43;22.50;99.90
9816;DHT22;4947;44.526;11.360;2022-08-18T05:52:13;22.40;99.90
9816;DHT22;4947;44.526;11.360;2022-08-18T05:54:49;22.40;99.90
9816;DHT22;4947;44.526;11.360;2022-08-18T05:57:39;22.40;99.90
9816;DHT22;4947;44.526;11.360;2022-08-18T06:00:09;22.50;99.90
9816;DHT22;4947;44.526;11.360;2022-08-18T06:02:38;22.60;99.90
9816;DHT22;4947;44.526;11.360;2022-08-18T06:05:14;22.70;99.90
9816;DHT22;4947;44.526;11.360;2022-08-18T06:07:52;22.70;99.90
9816;DHT22;4947;44.526;11.360;2022-08-18T06:10:20;22.70;99.90
9816;DHT22;4947;44.526;11.360;2022-08-18T06:12:49;22.70;99.90
9816;DHT22;4947;44.526;11.360;2022-08-18T06:15:22;22.70;99.90
9816;DHT22;4947;44.526;11.360;2022-08-18T06:21:06;22.70;99.90
9816;DHT22;4947;44.526;11.360;2022-08-18T06:23:50;22.70;99.90
9816;DHT22;4947;44.526;11.360;2022-08-18T06:26:22;22.80;99.90
9816;DHT22;4947;44.526;11.360;2022-08-18T06:28:59;22.80;99.90
9816;DHT22;4947;44.526;11.360;2022-08-18T06:31:34;22.70;99.90
9816;DHT22;4947;44.526;11.360;2022-08-18T06:34:13;22.70;99.90
9816;DHT22;4947;44.526;11.360;2022-08-18T06:36:51;22.70;99.90
9816;DHT22;4947;44.526;11.360;2022-08-18T06:39:25;22.70;99.90
9816;DHT22;4947;44.526;11.360;2022-08-18T06:41:54;22.70;99.90
9816;DHT22;4947;44.526;11.360;2022-08-18T06:44:28;22.60;99.90
9816;DHT22;4947;44.526;11.360;2022-08-18T06:47:00;22.60;99.90
9816;DHT22;4947;44.526;11.360;2022-08-18T06:49:35;22.60;99.90
9816;DHT22;4947;44.526;11.360;2022-08-18T06:52:25;22.50;99.90
9816;DHT22;4947;44.526;11.360;2022-08-18T06:54:55;22.50;99.90
9816;DHT22;4947;44.526;11.360;2022-08-18T06:57:27;22.40;99.90
9816;DHT22;4947;44.526;11.360;2022-08-18T07:00:03;22.40;99.90
9816;DHT22;4947;44.526;11.360;2022-08-18T07:02:44;22.40;99.90
9816;DHT22;4947;44.526;11.360;2022-08-18T07:05:19;22.30;99.90
9816;DHT22;4947;44.526;11.360;2022-08-18T07:08:02;22.30;99.90
9816;DHT22;4947;44.526;11.360;2022-08-18T07:10:32;22.20;99.90
9816;DHT22;4947;44.526;11.360;2022-08-18T07:13:12;22.20;99.90
9816;DHT22;4947;44.526;11.360;2022-08-18T07:15:41;22.30;99.90
9816;DHT22;4947;44.526;11.360;2022-08-18T07:18:11;22.20;99.90
9816;DHT22;4947;44.526;11.360;2022-08-18T07:20:44;22.20;99.90
9816;DHT22;4947;44.526;11.360;2022-08-18T07:23:23;22.20;99.90
9816;DHT22;4947;44.526;11.360;2022-08-18T07:25:59;22.20;99.90
9816;DHT22;4947;44.526;11.360;2022-08-18T07:28:29;22.10;99.90
9816;DHT22;4947;44.526;11.360;2022-08-18T07:31:15;22.10;99.90
9816;DHT22;4947;44.526;11.360;2022-08-18T07:33:50;22.10;99.90
9816;DHT22;4947;44.526;11.360;2022-08-18T07:36:23;22.20;99.90
9816;DHT22;4947;44.526;11.360;2022-08-18T07:38:55;22.20;99.90
9816;DHT22;4947;44.526;11.360;2022-08-18T07:41:29;22.30;99.90
9816;DHT22;4947;44.526;11.360;2022-08-18T07:44:04;22.30;99.90
9816;DHT22;4947;44.526;11.360;2022-08-18T07:46:42;22.30;99.90
9816;DHT22;4947;44.526;11.360;2022-08-18T07:49:16;22.40;99.90
9816;DHT22;4947;44.526;11.360;2022-08-18T07:51:46;22.50;99.90
9816;DHT22;4947;44.526;11.360;2022-08-18T07:54:24;22.50;99.90
9816;DHT22;4947;44.526;11.360;2022-08-18T07:57:01;22.50;99.90
9816;DHT22;4947;44.526;11.360;2022-08-18T07:59:36;22.50;99.90
9816;DHT22;4947;44.526;11.360;2022-08-18T08:02:19;22.60;99.90
9816;DHT22;4947;44.526;11.360;2022-08-18T08:04:57;22.60;99.90
9816;DHT22;4947;44.526;11.360;2022-08-18T08:07:29;22.60;99.90
9816;DHT22;4947;44.526;11.360;2022-08-18T08:10:23;22.60;99.90
9816;DHT22;4947;44.526;11.360;2022-08-18T08:12:59;22.70;99.90
9816;DHT22;4947;44.526;11.360;2022-08-18T08:15:38;22.80;99.90
9816;DHT22;4947;44.526;11.360;2022-08-18T08:18:13;22.80;99.90
9816;DHT22;4947;44.526;11.360;2022-08-18T08:20:46;22.80;99.90
9816;DHT22;4947;44.526;11.360;2022-08-18T08:23:21;22.80;99.90
9816;DHT22;4947;44.526;11.360;2022-08-18T08:26:17;22.80;99.90
9816;DHT22;4947;44.526;11.360;2022-08-18T08:28:53;22.80;99.90
9816;DHT22;4947;44.526;11.360;2022-08-18T08:31:31;22.80;99.90
9816;DHT22;4947;44.526;11.360;2022-08-18T08:34:08;22.80;99.90
9816;DHT22;4947;44.526;11.360;2022-08-18T08:36:41;22.80;99.90
9816;DHT22;4947;44.526;11.360;2022-08-18T08:39:15;22.70;99.90
9816;DHT22;4947;44.526;11.360;2022-08-18T08:41:50;22.70;99.90
9816;DHT22;4947;44.526;11.360;2022-08-18T08:44:22;22.60;99.90
9816;DHT22;4947;44.526;11.360;2022-08-18T08:47:09;22.60;99.90
9816;DHT22;4947;44.526;11.360;2022-08-18T08:49:44;22.60;99.90
9816;DHT22;4947;44.526;11.360;2022-08-18T08:52:16;22.60;99.90
9816;DHT22;4947;44.526;11.360;2022-08-18T08:54:49;22.50;99.90
9816;DHT22;4947;44.526;11.360;2022-08-18T08:57:23;22.50;99.90
9816;DHT22;4947;44.526;11.360;2022-08-18T08:59:54;22.40;99.90
9816;DHT22;4947;44.526;11.360;2022-08-18T09:02:51;22.30;99.90
9816;DHT22;4947;44.526;11.360;2022-08-18T09:05:24;22.30;99.90
9816;DHT22;4947;44.526;11.360;2022-08-18T09:08:04;22.20;99.90
9816;DHT22;4947;44.526;11.360;2022-08-18T09:17:05;21.90;99.90
9816;DHT22;4947;44.526;11.360;2022-08-18T09:19:55;21.80;99.90
9816;DHT22;4947;44.526;11.360;2022-08-18T09:22:33;21.80;99.90
9816;DHT22;4947;44.526;11.360;2022-08-18T09:25:08;21.80;99.90
9816;DHT22;4947;44.526;11.360;2022-08-18T09:27:42;21.80;99.90
9816;DHT22;4947;44.526;11.360;2022-08-18T09:30:39;21.80;99.90
9816;DHT22;4947;44.526;11.360;2022-08-18T09:33:22;21.80;99.90
9816;DHT22;4947;44.526;11.360;2022-08-18T09:36:12;21.80;99.90
9816;DHT22;4947;44.526;11.360;2022-08-18T09:38:49;21.80;99.90
9816;DHT22;4947;44.526;11.360;2022-08-18T09:41:38;21.70;99.90
9816;DHT22;4947;44.526;11.360;2022-08-18T09:44:13;21.70;99.90
9816;DHT22;4947;44.526;11.360;2022-08-18T09:47:01;21.70;99.90
9816;DHT22;4947;44.526;11.360;2022-08-18T09:49:49;21.70;99.90
9816;DHT22;4947;44.526;11.360;2022-08-18T09:55:55;21.40;99.90
9816;DHT22;4947;44.526;11.360;2022-08-18T09:58:51;21.20;99.90
9816;DHT22;4947;44.526;11.360;2022-08-18T10:01:30;20.80;99.90
9816;DHT22;4947;44.526;11.360;2022-08-18T10:04:27;20.50;99.90
9816;DHT22;4947;44.526;11.360;2022-08-18T10:07:19;20.10;99.90
9816;DHT22;4947;44.526;11.360;2022-08-18T10:09:58;20.00;99.90
9816;DHT22;4947;44.526;11.360;2022-08-18T10:12:39;19.90;99.90
9816;DHT22;4947;44.526;11.360;2022-08-18T10:15:27;19.80;99.90
9816;DHT22;4947;44.526;11.360;2022-08-18T10:18:22;19.80;99.90
9816;DHT22;4947;44.526;11.360;2022-08-18T10:20:59;19.60;99.90
9816;DHT22;4947;44.526;11.360;2022-08-18T10:23:49;19.60;99.90
9816;DHT22;4947;44.526;11.360;2022-08-18T10:30:02;19.70;99.90
9816;DHT22;4947;44.526;11.360;2022-08-18T10:32:41;19.70;99.90
9816;DHT22;4947;44.526;11.360;2022-08-18T10:41:29;19.80;99.90
9816;DHT22;4947;44.526;11.360;2022-08-18T10:43:58;19.90;99.90
9816;DHT22;4947;44.526;11.360;2022-08-18T10:46:28;20.00;99.90
9816;DHT22;4947;44.526;11.360;2022-08-18T10:49:02;20.00;99.90
9816;DHT22;4947;44.526;11.360;2022-08-18T10:51:42;20.10;99.90
9816;DHT22;4947;44.526;11.360;2022-08-18T10:54:20;20.20;99.90
9816;DHT22;4947;44.526;11.360;2022-08-18T10:56:53;20.30;99.90
9816;DHT22;4947;44.526;11.360;2022-08-18T10:59:27;20.70;99.90
9816;DHT22;4947;44.526;11.360;2022-08-18T11:02:04;20.90;99.90
9816;DHT22;4947;44.526;11.360;2022-08-18T11:04:41;21.20;99.90
9816;DHT22;4947;44.526;11.360;2022-08-18T11:07:10;21.60;99.90
9816;DHT22;4947;44.526;11.360;2022-08-18T11:09:40;21.90;99.90
9816;DHT22;4947;44.526;11.360;2022-08-18T11:12:11;22.00;99.90
9816;DHT22;4947;44.526;11.360;2022-08-18T11:17:49;22.40;99.90
9816;DHT22;4947;44.526;11.360;2022-08-18T11:20:21;22.70;99.90
9816;DHT22;4947;44.526;11.360;2022-08-18T11:22:54;22.80;99.90
9816;DHT22;4947;44.526;11.360;2022-08-18T11:25:25;23.00;99.90
9816;DHT22;4947;44.526;11.360;2022-08-18T11:27:55;23.00;99.90
9816;DHT22;4947;44.526;11.360;2022-08-18T11:30:26;23.20;99.90
9816;DHT22;4947;44.526;11.360;2022-08-18T11:32:54;23.40;99.90
9816;DHT22;4947;44.526;11.360;2022-08-18T11:35:26;23.70;99.90
9816;DHT22;4947;44.526;11.360;2022-08-18T11:37:58;23.90;99.90
9816;DHT22;4947;44.526;11.360;2022-08-18T11:40:34;24.00;99.90
9816;DHT22;4947;44.526;11.360;2022-08-18T11:43:09;23.90;99.90
9816;DHT22;4947;44.526;11.360;2022-08-18T11:45:52;24.00;99.60
9816;DHT22;4947;44.526;11.360;2022-08-18T11:48:30;24.20;99.90
9816;DHT22;4947;44.526;11.360;2022-08-18T11:51:09;24.40;99.90
9816;DHT22;4947;44.526;11.360;2022-08-18T11:53:48;24.70;98.70
9816;DHT22;4947;44.526;11.360;2022-08-18T11:56:21;24.90;99.90
9816;DHT22;4947;44.526;11.360;2022-08-18T11:58:54;25.20;99.90
9816;DHT22;4947;44.526;11.360;2022-08-18T12:01:47;25.50;99.90
9816;DHT22;4947;44.526;11.360;2022-08-18T12:04:21;25.50;99.90
9816;DHT22;4947;44.526;11.360;2022-08-18T12:06:59;25.40;99.90
9816;DHT22;4947;44.526;11.360;2022-08-18T12:09:38;25.40;99.90
9816;DHT22;4947;44.526;11.360;2022-08-18T12:12:14;25.30;99.90
9816;DHT22;4947;44.526;11.360;2022-08-18T12:14:55;25.40;99.90
9816;DHT22;4947;44.526;11.360;2022-08-18T12:17:23;25.50;99.90
9816;DHT22;4947;44.526;11.360;2022-08-18T12:19:50;25.80;99.90
9816;DHT22;4947;44.526;11.360;2022-08-18T12:22:20;25.90;98.60
9816;DHT22;4947;44.526;11.360;2022-08-18T12:24:49;25.90;98.50
9816;DHT22;4947;44.526;11.360;2022-08-18T12:27:19;26.10;96.60
9816;DHT22;4947;44.526;11.360;2022-08-18T12:29:46;26.40;94.30
9816;DHT22;4947;44.526;11.360;2022-08-18T12:32:15;26.50;92.40
9816;DHT22;4947;44.526;11.360;2022-08-18T12:34:43;26.20;97.30
9816;DHT22;4947;44.526;11.360;2022-08-18T12:37:15;26.00;97.80
9816;DHT22;4947;44.526;11.360;2022-08-18T12:39:42;26.10;98.70
9816;DHT22;4947;44.526;11.360;2022-08-18T12:42:11;26.10;97.70
9816;DHT22;4947;44.526;11.360;2022-08-18T12:44:38;26.10;96.70
9816;DHT22;4947;44.526;11.360;2022-08-18T12:47:10;26.10;98.20
9816;DHT22;4947;44.526;11.360;2022-08-18T12:49:39;25.90;97.80
9816;DHT22;4947;44.526;11.360;2022-08-18T12:52:07;26.00;97.70
9816;DHT22;4947;44.526;11.360;2022-08-18T12:54:35;26.00;95.40
9816;DHT22;4947;44.526;11.360;2022-08-18T12:57:06;25.80;95.80
9816;DHT22;4947;44.526;11.360;2022-08-18T12:59:34;25.70;96.10
9816;DHT22;4947;44.526;11.360;2022-08-18T13:02:02;25.70;95.80
9816;DHT22;4947;44.526;11.360;2022-08-18T13:04:29;25.80;96.20
9816;DHT22;4947;44.526;11.360;2022-08-18T13:06:58;25.90;98.50
9816;DHT22;4947;44.526;11.360;2022-08-18T13:09:26;26.10;96.40
9816;DHT22;4947;44.526;11.360;2022-08-18T13:11:53;26.10;96.10
9816;DHT22;4947;44.526;11.360;2022-08-18T13:14:22;26.20;95.00
9816;DHT22;4947;44.526;11.360;2022-08-18T13:16:49;26.30;93.90
9816;DHT22;4947;44.526;11.360;2022-08-18T13:19:16;26.30;94.70
9816;DHT22;4947;44.526;11.360;2022-08-18T13:21:44;26.30;97.20
9816;DHT22;4947;44.526;11.360;2022-08-18T13:24:13;26.30;94.60
9816;DHT22;4947;44.526;11.360;2022-08-18T13:26:43;26.30;96.90
9816;DHT22;4947;44.526;11.360;2022-08-18T13:29:11;26.30;94.70
9816;DHT22;4947;44.526;11.360;2022-08-18T13:31:39;26.40;94.90
9816;DHT22;4947;44.526;11.360;2022-08-18T13:34:06;26.70;94.70
9816;DHT22;4947;44.526;11.360;2022-08-18T13:36:34;26.70;92.60
9816;DHT22;4947;44.526;11.360;2022-08-18T13:39:11;26.60;92.50
9816;DHT22;4947;44.526;11.360;2022-08-18T13:41:40;26.60;92.40
9816;DHT22;4947;44.526;11.360;2022-08-18T13:44:08;26.50;93.10
9816;DHT22;4947;44.526;11.360;2022-08-18T13:46:38;26.60;93.30
9816;DHT22;4947;44.526;11.360;2022-08-18T13:49:10;26.60;93.40
9816;DHT22;4947;44.526;11.360;2022-08-18T13:51:39;26.40;92.40
9816;DHT22;4947;44.526;11.360;2022-08-18T13:54:07;26.30;93.70
9816;DHT22;4947;44.526;11.360;2022-08-18T13:56:35;26.20;93.90
9816;DHT22;4947;44.526;11.360;2022-08-18T13:59:04;26.20;93.80
9816;DHT22;4947;44.526;11.360;2022-08-18T14:01:32;26.40;93.00
9816;DHT22;4947;44.526;11.360;2022-08-18T14:03:59;26.50;90.90
9816;DHT22;4947;44.526;11.360;2022-08-18T14:06:32;26.50;90.50
9816;DHT22;4947;44.526;11.360;2022-08-18T14:08:59;26.60;91.00
9816;DHT22;4947;44.526;11.360;2022-08-18T14:11:28;26.70;90.80
9816;DHT22;4947;44.526;11.360;2022-08-18T14:13:56;26.40;91.40
9816;DHT22;4947;44.526;11.360;2022-08-18T14:16:25;26.20;92.00
9816;DHT22;4947;44.526;11.360;2022-08-18T14:18:54;26.20;90.90
9816;DHT22;4947;44.526;11.360;2022-08-18T14:21:40;26.20;92.60
9816;DHT22;4947;44.526;11.360;2022-08-18T14:24:25;26.30;93.30
9816;DHT22;4947;44.526;11.360;2022-08-18T14:27:10;26.60;92.30
9816;DHT22;4947;44.526;11.360;2022-08-18T14:29:37;26.70;91.80
9816;DHT22;4947;44.526;11.360;2022-08-18T14:32:08;26.90;90.30
9816;DHT22;4947;44.526;11.360;2022-08-18T14:34:36;27.10;90.70
9816;DHT22;4947;44.526;11.360;2022-08-18T14:37:04;27.20;91.50
9816;DHT22;4947;44.526;11.360;2022-08-18T14:39:31;27.30;91.00
9816;DHT22;4947;44.526;11.360;2022-08-18T14:41:59;27.30;88.30
9816;DHT22;4947;44.526;11.360;2022-08-18T14:44:27;27.30;88.20
9816;DHT22;4947;44.526;11.360;2022-08-18T14:46:55;27.30;88.20
9816;DHT22;4947;44.526;11.360;2022-08-18T14:49:23;27.20;88.20
9816;DHT22;4947;44.526;11.360;2022-08-18T14:51:52;27.10;89.40
9816;DHT22;4947;44.526;11.360;2022-08-18T14:54:20;27.20;88.10
9816;DHT22;4947;44.526;11.360;2022-08-18T14:56:48;27.30;84.10
9816;DHT22;4947;44.526;11.360;2022-08-18T14:59:16;27.40;84.60
9816;DHT22;4947;44.526;11.360;2022-08-18T15:01:43;27.50;85.60
9816;DHT22;4947;44.526;11.360;2022-08-18T15:04:11;27.40;83.90
9816;DHT22;4947;44.526;11.360;2022-08-18T15:06:41;27.40;81.90
9816;DHT22;4947;44.526;11.360;2022-08-18T15:09:08;27.40;84.20
9816;DHT22;4947;44.526;11.360;2022-08-18T15:11:36;27.40;85.30
9816;DHT22;4947;44.526;11.360;2022-08-18T15:14:03;27.40;86.20
9816;DHT22;4947;44.526;11.360;2022-08-18T15:16:30;27.50;86.90
9816;DHT22;4947;44.526;11.360;2022-08-18T15:18:59;27.50;82.90
9816;DHT22;4947;44.526;11.360;2022-08-18T15:21:27;27.30;85.30
9816;DHT22;4947;44.526;11.360;2022-08-18T15:24:13;27.30;83.90
9816;DHT22;4947;44.526;11.360;2022-08-18T15:26:58;27.30;86.00
9816;DHT22;4947;44.526;11.360;2022-08-18T15:29:27;27.40;87.60
9816;DHT22;4947;44.526;11.360;2022-08-18T15:31:56;27.40;84.80
9816;DHT22;4947;44.526;11.360;2022-08-18T15:34:24;27.50;84.70
9816;DHT22;4947;44.526;11.360;2022-08-18T15:36:51;27.50;85.30
9816;DHT22;4947;44.526;11.360;2022-08-18T15:39:21;27.40;81.70
9816;DHT22;4947;44.526;11.360;2022-08-18T15:41:49;27.30;82.00
9816;DHT22;4947;44.526;11.360;2022-08-18T15:44:19;27.20;80.70
9816;DHT22;4947;44.526;11.360;2022-08-18T15:46:47;27.20;82.60
9816;DHT22;4947;44.526;11.360;2022-08-18T15:49:17;27.20;82.10
9816;DHT22;4947;44.526;11.360;2022-08-18T15:51:45;27.20;83.30
9816;DHT22;4947;44.526;11.360;2022-08-18T15:54:12;27.30;83.00
9816;DHT22;4947;44.526;11.360;2022-08-18T15:56:41;27.30;82.50
9816;DHT22;4947;44.526;11.360;2022-08-18T15:59:09;27.20;85.80
9816;DHT22;4947;44.526;11.360;2022-08-18T16:01:37;27.20;85.00
9816;DHT22;4947;44.526;11.360;2022-08-18T16:04:05;27.10;86.90
9816;DHT22;4947;44.526;11.360;2022-08-18T16:06:36;27.00;87.40
9816;DHT22;4947;44.526;11.360;2022-08-18T16:09:09;27.00;87.40
9816;DHT22;4947;44.526;11.360;2022-08-18T16:11:37;27.00;89.50
9816;DHT22;4947;44.526;11.360;2022-08-18T16:14:07;26.90;90.10
9816;DHT22;4947;44.526;11.360;2022-08-18T16:16:34;26.90;90.20
9816;DHT22;4947;44.526;11.360;2022-08-18T16:19:03;26.90;88.70
9816;DHT22;4947;44.526;11.360;2022-08-18T16:21:31;27.00;87.80
9816;DHT22;4947;44.526;11.360;2022-08-18T16:23:59;26.90;87.70
9816;DHT22;4947;44.526;11.360;2022-08-18T16:26:26;26.90;87.60
9816;DHT22;4947;44.526;11.360;2022-08-18T16:28:54;26.90;89.60
9816;DHT22;4947;44.526;11.360;2022-08-18T16:31:23;26.90;90.00
9816;DHT22;4947;44.526;11.360;2022-08-18T16:33:53;26.80;91.10
9816;DHT22;4947;44.526;11.360;2022-08-18T16:36:22;26.70;91.70
9816;DHT22;4947;44.526;11.360;2022-08-18T16:38:50;26.60;92.60
9816;DHT22;4947;44.526;11.360;2022-08-18T16:41:18;26.50;92.90
9816;DHT22;4947;44.526;11.360;2022-08-18T16:43:45;26.40;93.70